Time,TemperatureF,DewpointF,PressureIn,WindDirection,WindDirectionDegrees,WindSpeedMPH,WindSpeedGustMPH,Humidity,HourlyPrecipIn,Conditions,Clouds,dailyrainin,SoftwareType,DateUTC
2013-04-08 00:00:00,35.5,29.9,29.43,SE,135,8.7,9.6,80,0.00,,,0.00,WUHU216HW,2013-04-08 05:00:00,
2013-04-08 00:05:00,35.5,29.9,29.43,ESE,113,5.6,9.6,80,0.00,,,0.00,WUHU216HW,2013-04-08 05:05:00,
2013-04-08 00:10:00,35.5,29.9,29.43,ESE,113,4.0,9.6,80,0.00,,,0.00,WUHU216HW,2013-04-08 05:10:00,
2013-04-08 00:15:00,35.5,29.9,29.43,ESE,113,6.9,7.8,80,0.00,,,0.00,WUHU216HW,2013-04-08 05:15:00,
2013-04-08 00:20:00,35.3,29.7,29.43,ESE,113,9.2,9.6,80,0.00,,,0.00,WUHU216HW,2013-04-08 05:20:00,
2013-04-08 00:25:00,35.3,29.7,29.43,SE,135,10.1,10.1,80,0.00,,,0.00,WUHU216HW,2013-04-08 05:25:00,
2013-04-08 00:30:00,35.3,29.7,29.43,ESE,113,7.8,10.5,80,0.00,,,0.00,WUHU216HW,2013-04-08 05:30:00,
2013-04-08 00:35:00,35.5,29.9,29.43,ESE,113,10.5,11.0,80,0.00,,,0.00,WUHU216HW,2013-04-08 05:35:00,
2013-04-08 00:40:00,35.3,30.0,29.43,SE,135,7.6,11.0,81,0.00,,,0.00,WUHU216HW,2013-04-08 05:40:00,
2013-04-08 00:45:00,35.3,29.7,29.43,SE,135,7.2,10.5,80,0.00,,,0.00,WUHU216HW,2013-04-08 05:45:00,
2013-04-08 00:50:00,35.3,29.7,29.42,SE,135,6.3,9.2,80,0.00,,,0.00,WUHU216HW,2013-04-08 05:50:00,
2013-04-08 00:55:00,35.3,29.7,29.42,SE,135,7.6,8.3,80,0.00,,,0.00,WUHU216HW,2013-04-08 05:55:00,
2013-04-08 01:00:00,35.1,29.5,29.43,SE,135,6.3,8.1,80,0.00,,,0.00,WUHU216HW,2013-04-08 06:00:00,
2013-04-08 01:06:00,35.1,29.5,29.43,SE,135,7.6,7.6,80,0.00,,,0.00,WUHU216HW,2013-04-08 06:06:00,
2013-04-08 01:11:00,35.1,29.5,29.43,SE,135,6.7,7.6,80,0.00,,,0.00,WUHU216HW,2013-04-08 06:11:00,
2013-04-08 01:16:00,34.9,29.6,29.42,SE,135,7.8,8.5,81,0.00,,,0.00,WUHU216HW,2013-04-08 06:16:00,
2013-04-08 01:21:00,35.1,29.8,29.42,SE,135,8.5,9.2,81,0.00,,,0.00,WUHU216HW,2013-04-08 06:21:00,
2013-04-08 01:26:00,35.1,29.8,29.41,SE,135,9.6,9.8,81,0.00,,,0.00,WUHU216HW,2013-04-08 06:26:00,
2013-04-08 01:31:00,35.1,29.8,29.41,SE,135,8.9,12.8,81,0.00,,,0.00,WUHU216HW,2013-04-08 06:31:00,
2013-04-08 01:36:00,35.1,29.8,29.41,SE,135,8.9,12.8,81,0.00,,,0.00,WUHU216HW,2013-04-08 06:36:00,
2013-04-08 01:41:00,35.3,30.0,29.41,SE,135,8.9,9.6,81,0.00,,,0.00,WUHU216HW,2013-04-08 06:41:00,
2013-04-08 01:46:00,35.3,30.0,29.41,SE,135,8.5,10.7,81,0.00,,,0.00,WUHU216HW,2013-04-08 06:46:00,
2013-04-08 01:51:00,35.3,30.0,29.40,ESE,113,10.1,11.2,81,0.00,,,0.00,WUHU216HW,2013-04-08 06:51:00,
2013-04-08 01:56:00,35.5,30.2,29.40,ESE,113,9.2,13.2,81,0.00,,,0.00,WUHU216HW,2013-04-08 06:56:00,
2013-04-08 02:01:00,35.6,30.3,29.40,SE,135,8.9,13.2,81,0.00,,,0.00,WUHU216HW,2013-04-08 07:01:00,
2013-04-08 02:06:00,35.6,30.3,29.40,ESE,113,8.5,12.1,81,0.00,,,0.00,WUHU216HW,2013-04-08 07:06:00,
2013-04-08 02:12:00,35.6,30.3,29.40,SE,135,10.5,12.1,81,0.00,,,0.00,WUHU216HW,2013-04-08 07:12:00,
2013-04-08 02:17:00,35.8,30.5,29.39,ESE,113,7.6,12.1,81,0.00,,,0.00,WUHU216HW,2013-04-08 07:17:00,
2013-04-08 02:22:00,35.8,30.5,29.39,ESE,113,9.2,12.1,81,0.00,,,0.00,WUHU216HW,2013-04-08 07:22:00,
2013-04-08 02:27:00,36.0,30.7,29.39,SE,135,12.1,12.1,81,0.00,,,0.00,WUHU216HW,2013-04-08 07:27:00,
2013-04-08 02:32:00,36.0,30.7,29.39,ESE,113,7.8,12.1,81,0.00,,,0.00,WUHU216HW,2013-04-08 07:32:00,
2013-04-08 02:37:00,36.0,30.7,29.39,SE,135,8.5,12.1,81,0.00,,,0.00,WUHU216HW,2013-04-08 07:37:00,
2013-04-08 02:42:00,36.0,30.4,29.38,SE,135,11.0,11.0,80,0.00,,,0.00,WUHU216HW,2013-04-08 07:42:00,
2013-04-08 02:47:00,36.0,30.7,29.37,ESE,113,10.1,11.2,81,0.00,,,0.00,WUHU216HW,2013-04-08 07:47:00,
2013-04-08 02:52:00,36.0,30.4,29.37,SE,135,12.1,12.1,80,0.00,,,0.00,WUHU216HW,2013-04-08 07:52:00,
2013-04-08 02:57:00,36.0,30.4,29.36,SE,135,10.5,12.1,80,0.00,,,0.00,WUHU216HW,2013-04-08 07:57:00,
2013-04-08 03:02:00,36.0,30.4,29.36,SE,135,7.6,12.1,80,0.00,,,0.00,WUHU216HW,2013-04-08 08:02:00,
2013-04-08 03:07:00,36.2,30.6,29.37,ESE,113,10.7,11.6,80,0.00,,,0.00,WUHU216HW,2013-04-08 08:07:00,
2013-04-08 03:12:00,36.2,30.6,29.37,ESE,113,11.4,11.4,80,0.00,,,0.00,WUHU216HW,2013-04-08 08:12:00,
2013-04-08 03:17:00,36.2,30.6,29.36,ESE,113,8.9,12.1,80,0.00,,,0.00,WUHU216HW,2013-04-08 08:17:00,
2013-04-08 03:22:00,36.4,31.1,29.36,SE,135,8.3,12.1,81,0.00,,,0.00,WUHU216HW,2013-04-08 08:22:00,
2013-04-08 03:27:00,36.4,30.8,29.35,SE,135,10.1,11.6,80,0.00,,,0.00,WUHU216HW,2013-04-08 08:27:00,
2013-04-08 03:32:00,36.4,30.8,29.35,East,90,12.5,12.5,80,0.00,,,0.00,WUHU216HW,2013-04-08 08:32:00,
2013-04-08 03:37:00,36.4,30.8,29.35,ESE,113,9.2,12.5,80,0.00,,,0.00,WUHU216HW,2013-04-08 08:37:00,
2013-04-08 03:42:00,36.4,30.8,29.35,SE,135,12.1,12.1,80,0.00,,,0.00,WUHU216HW,2013-04-08 08:42:00,
2013-04-08 03:47:00,36.5,31.0,29.35,SE,135,11.4,12.1,80,0.00,,,0.00,WUHU216HW,2013-04-08 08:47:00,
2013-04-08 03:52:00,36.5,31.0,29.35,SE,135,13.2,13.2,80,0.00,,,0.00,WUHU216HW,2013-04-08 08:52:00,
2013-04-08 03:57:00,36.5,31.0,29.34,ESE,113,11.9,13.2,80,0.00,,,0.00,WUHU216HW,2013-04-08 08:57:00,
2013-04-08 04:02:00,36.5,31.0,29.34,SE,135,9.6,13.2,80,0.00,,,0.00,WUHU216HW,2013-04-08 09:02:00,
2013-04-08 04:07:00,36.5,31.0,29.34,SE,135,11.4,11.9,80,0.00,,,0.00,WUHU216HW,2013-04-08 09:07:00,
2013-04-08 04:12:00,36.5,31.0,29.34,SE,135,11.6,12.1,80,0.00,,,0.00,WUHU216HW,2013-04-08 09:12:00,
2013-04-08 04:17:00,36.5,31.0,29.34,SE,135,12.1,12.1,80,0.00,,,0.00,WUHU216HW,2013-04-08 09:17:00,
2013-04-08 04:22:00,36.7,31.1,29.33,SE,135,10.5,12.1,80,0.00,,,0.00,WUHU216HW,2013-04-08 09:22:00,
2013-04-08 04:27:00,36.7,31.1,29.33,SE,135,10.5,12.1,80,0.00,,,0.00,WUHU216HW,2013-04-08 09:27:00,
2013-04-08 04:32:00,36.7,31.1,29.33,SE,135,11.2,11.9,80,0.00,,,0.00,WUHU216HW,2013-04-08 09:32:00,
2013-04-08 04:37:00,36.7,31.1,29.33,SE,135,11.9,11.9,80,0.00,,,0.00,WUHU216HW,2013-04-08 09:37:00,
2013-04-08 04:42:00,36.9,31.6,29.32,ESE,113,11.0,13.2,81,0.00,,,0.00,WUHU216HW,2013-04-08 09:42:00,
2013-04-08 04:47:00,36.9,31.6,29.32,SE,135,12.1,13.2,81,0.00,,,0.00,WUHU216HW,2013-04-08 09:47:00,
2013-04-08 04:52:00,37.1,31.8,29.32,SSE,158,7.8,12.1,81,0.00,,,0.00,WUHU216HW,2013-04-08 09:52:00,
2013-04-08 04:57:00,37.1,31.8,29.32,SE,135,11.4,13.0,81,0.00,,,0.00,WUHU216HW,2013-04-08 09:57:00,
2013-04-08 05:02:00,37.1,31.8,29.31,ESE,113,13.2,13.2,81,0.00,,,0.00,WUHU216HW,2013-04-08 10:02:00,
2013-04-08 05:07:00,37.3,32.0,29.31,SE,135,11.6,14.3,81,0.00,,,0.00,WUHU216HW,2013-04-08 10:07:00,
2013-04-08 05:12:00,37.4,32.1,29.31,SE,135,11.0,14.3,81,0.00,,,0.00,WUHU216HW,2013-04-08 10:12:00,
2013-04-08 05:17:00,37.4,32.1,29.31,SE,135,12.8,13.9,81,0.00,,,0.00,WUHU216HW,2013-04-08 10:17:00,
2013-04-08 05:22:00,37.6,32.3,29.30,SE,135,11.9,12.8,81,0.00,,,0.00,WUHU216HW,2013-04-08 10:22:00,
2013-04-08 05:27:00,37.6,32.3,29.30,SE,135,7.6,12.8,81,0.00,,,0.00,WUHU216HW,2013-04-08 10:27:00,
2013-04-08 05:32:00,37.6,32.3,29.29,ESE,113,9.4,11.6,81,0.00,,,0.00,WUHU216HW,2013-04-08 10:32:00,
2013-04-08 05:37:00,37.8,32.5,29.29,SE,135,9.4,11.6,81,0.00,,,0.00,WUHU216HW,2013-04-08 10:37:00,
2013-04-08 05:42:00,37.8,32.5,29.29,SE,135,11.4,11.6,81,0.00,,,0.00,WUHU216HW,2013-04-08 10:42:00,
2013-04-08 05:47:00,37.8,32.5,29.29,ESE,113,10.3,11.6,81,0.00,,,0.00,WUHU216HW,2013-04-08 10:47:00,
2013-04-08 05:52:00,38.0,32.7,29.29,ESE,113,6.9,11.4,81,0.00,,,0.00,WUHU216HW,2013-04-08 10:52:00,
2013-04-08 05:57:00,38.0,32.7,29.29,SE,135,6.5,10.7,81,0.00,,,0.00,WUHU216HW,2013-04-08 10:57:00,
2013-04-08 06:02:00,38.2,32.9,29.29,ESE,113,6.9,10.3,81,0.00,,,0.00,WUHU216HW,2013-04-08 11:02:00,
2013-04-08 06:07:00,38.2,33.1,29.28,SE,135,8.1,8.7,82,0.00,,,0.00,WUHU216HW,2013-04-08 11:07:00,
2013-04-08 06:12:00,38.2,33.1,29.28,East,90,6.9,9.8,82,0.00,,,0.00,WUHU216HW,2013-04-08 11:12:00,
2013-04-08 06:17:00,38.3,33.3,29.28,SE,135,6.5,9.8,82,0.00,,,0.00,WUHU216HW,2013-04-08 11:17:00,
2013-04-08 06:22:00,38.5,33.5,29.27,ESE,113,6.3,8.7,82,0.00,,,0.00,WUHU216HW,2013-04-08 11:22:00,
2013-04-08 06:27:00,38.5,33.5,29.27,East,90,8.3,8.3,82,0.00,,,0.00,WUHU216HW,2013-04-08 11:27:00,
2013-04-08 06:32:00,38.5,33.5,29.27,ESE,113,6.9,8.7,82,0.00,,,0.00,WUHU216HW,2013-04-08 11:32:00,
2013-04-08 06:37:00,38.7,33.7,29.27,SE,135,8.5,9.6,82,0.00,,,0.00,WUHU216HW,2013-04-08 11:37:00,
2013-04-08 06:42:00,38.7,33.7,29.27,ESE,113,6.9,9.6,82,0.00,,,0.00,WUHU216HW,2013-04-08 11:42:00,
2013-04-08 06:47:00,38.9,33.8,29.27,SE,135,9.8,11.0,82,0.00,,,0.00,WUHU216HW,2013-04-08 11:47:00,
2013-04-08 06:52:00,38.9,33.8,29.26,SE,135,9.2,11.0,82,0.00,,,0.00,WUHU216HW,2013-04-08 11:52:00,
2013-04-08 06:57:00,39.2,34.2,29.26,ESE,113,9.2,10.3,82,0.00,,,0.00,WUHU216HW,2013-04-08 11:57:00,
2013-04-08 07:03:00,39.2,34.2,29.26,ESE,113,8.7,10.3,82,0.00,,,0.00,WUHU216HW,2013-04-08 12:03:00,
2013-04-08 07:08:00,39.2,34.2,29.25,SE,135,9.2,9.2,82,0.00,,,0.00,WUHU216HW,2013-04-08 12:08:00,
2013-04-08 07:13:00,39.2,34.2,29.25,ESE,113,7.8,11.4,82,0.00,,,0.00,WUHU216HW,2013-04-08 12:13:00,
2013-04-08 07:18:00,39.2,34.2,29.24,SE,135,8.1,11.4,82,0.00,,,0.00,WUHU216HW,2013-04-08 12:18:00,
2013-04-08 07:23:00,39.4,34.4,29.26,SE,135,9.2,13.9,82,0.00,,,0.00,WUHU216HW,2013-04-08 12:23:00,
2013-04-08 07:28:00,39.4,34.4,29.26,SE,135,12.8,13.9,82,0.00,,,0.00,WUHU216HW,2013-04-08 12:28:00,
2013-04-08 07:33:00,39.4,34.4,29.26,SE,135,9.4,12.8,82,0.00,,,0.00,WUHU216HW,2013-04-08 12:33:00,
2013-04-08 07:38:00,39.4,34.4,29.26,SE,135,12.1,12.8,82,0.00,,,0.00,WUHU216HW,2013-04-08 12:38:00,
2013-04-08 07:43:00,39.4,34.4,29.26,SE,135,10.1,12.1,82,0.00,,,0.00,WUHU216HW,2013-04-08 12:43:00,
2013-04-08 07:48:00,39.4,34.7,29.26,ESE,113,10.1,12.1,83,0.00,,,0.00,WUHU216HW,2013-04-08 12:48:00,
2013-04-08 07:53:00,39.4,34.7,29.26,SE,135,11.9,11.9,83,0.00,,,0.00,WUHU216HW,2013-04-08 12:53:00,
2013-04-08 07:58:00,39.4,34.7,29.26,SE,135,10.5,11.9,83,0.00,,,0.00,WUHU216HW,2013-04-08 12:58:00,
2013-04-08 08:03:00,39.4,35.0,29.26,SE,135,8.9,11.9,84,0.00,,,0.00,WUHU216HW,2013-04-08 13:03:00,
2013-04-08 08:08:00,39.2,34.8,29.26,SE,135,7.6,10.5,84,0.00,,,0.00,WUHU216HW,2013-04-08 13:08:00,
2013-04-08 08:13:00,39.2,34.8,29.27,SE,135,6.3,8.9,84,0.00,,,0.00,WUHU216HW,2013-04-08 13:13:00,
2013-04-08 08:18:00,39.1,34.7,29.27,SE,135,6.9,7.6,84,0.01,,,0.01,WUHU216HW,2013-04-08 13:18:00,
2013-04-08 08:23:00,38.9,34.7,29.27,SE,135,4.0,7.6,85,0.03,,,0.04,WUHU216HW,2013-04-08 13:23:00,
2013-04-08 08:28:00,38.9,34.7,29.27,SE,135,4.7,6.9,85,0.03,,,0.04,WUHU216HW,2013-04-08 13:28:00,
2013-04-08 08:33:00,38.7,34.6,29.27,ESE,113,3.4,6.3,85,0.04,,,0.04,WUHU216HW,2013-04-08 13:33:00,
2013-04-08 08:38:00,38.7,34.8,29.27,SE,135,3.8,5.4,86,0.05,,,0.06,WUHU216HW,2013-04-08 13:38:00,
2013-04-08 08:43:00,38.5,34.7,29.26,ESE,113,4.0,5.4,86,0.06,,,0.06,WUHU216HW,2013-04-08 13:43:00,
2013-04-08 08:48:00,38.5,34.9,29.26,East,90,4.0,5.8,87,0.08,,,0.09,WUHU216HW,2013-04-08 13:48:00,
2013-04-08 08:53:00,38.3,34.7,29.26,ESE,113,3.6,5.8,87,0.09,,,0.09,WUHU216HW,2013-04-08 13:53:00,
2013-04-08 08:58:00,38.3,35.1,29.25,ENE,68,4.7,5.1,88,0.11,,,0.11,WUHU216HW,2013-04-08 13:58:00,
2013-04-08 09:03:00,38.2,34.9,29.26,East,90,1.8,4.9,88,0.14,,,0.15,WUHU216HW,2013-04-08 14:03:00,
2013-04-08 09:08:00,38.2,34.9,29.25,NE,45,2.5,4.9,88,0.17,,,0.18,WUHU216HW,2013-04-08 14:08:00,
2013-04-08 09:13:00,38.0,34.4,29.25,North,0,2.5,4.9,87,0.18,,,0.20,WUHU216HW,2013-04-08 14:13:00,
2013-04-08 09:18:00,37.8,34.6,29.24,North,0,4.3,4.5,88,0.19,,,0.22,WUHU216HW,2013-04-08 14:18:00,
2013-04-08 09:23:00,37.8,35.1,29.24,North,0,7.4,7.8,90,0.21,,,0.25,WUHU216HW,2013-04-08 14:23:00,
2013-04-08 09:28:00,37.8,35.1,29.23,North,0,8.5,8.5,90,0.22,,,0.27,WUHU216HW,2013-04-08 14:28:00,
2013-04-08 09:33:00,37.8,35.1,29.22,North,0,8.1,9.4,90,0.23,,,0.29,WUHU216HW,2013-04-08 14:33:00,
2013-04-08 09:38:00,37.8,35.1,29.23,North,0,6.9,9.8,90,0.25,,,0.31,WUHU216HW,2013-04-08 14:38:00,
2013-04-08 09:43:00,37.8,35.1,29.22,North,0,7.8,10.7,90,0.24,,,0.31,WUHU216HW,2013-04-08 14:43:00,
2013-04-08 09:48:00,37.8,35.4,29.22,NNE,23,8.1,11.4,91,0.23,,,0.33,WUHU216HW,2013-04-08 14:48:00,
2013-04-08 09:53:00,37.8,35.1,29.22,North,0,9.8,11.4,90,0.23,,,0.34,WUHU216HW,2013-04-08 14:53:00,
2013-04-08 09:58:00,37.8,35.1,29.22,NNE,23,9.6,11.4,90,0.21,,,0.35,WUHU216HW,2013-04-08 14:58:00,
2013-04-08 10:03:00,37.8,35.4,29.22,North,0,10.5,11.9,91,0.20,,,0.36,WUHU216HW,2013-04-08 15:03:00,
2013-04-08 10:08:00,37.8,35.6,29.22,North,0,8.1,13.0,92,0.16,,,0.36,WUHU216HW,2013-04-08 15:08:00,
2013-04-08 10:13:00,37.8,35.6,29.22,North,0,10.1,13.0,92,0.15,,,0.36,WUHU216HW,2013-04-08 15:13:00,
2013-04-08 10:18:00,38.2,36.0,29.22,NNE,23,13.2,13.2,92,0.13,,,0.37,WUHU216HW,2013-04-08 15:18:00,
2013-04-08 10:23:00,38.2,36.0,29.22,North,0,11.2,13.9,92,0.11,,,0.37,WUHU216HW,2013-04-08 15:23:00,
2013-04-08 10:28:00,38.2,36.0,29.22,NNW,338,6.3,15.7,92,0.08,,,0.37,WUHU216HW,2013-04-08 15:28:00,
2013-04-08 10:33:00,38.5,36.4,29.22,North,0,13.0,15.7,92,0.07,,,0.37,WUHU216HW,2013-04-08 15:33:00,
2013-04-08 10:38:00,38.5,36.6,29.23,North,0,11.0,14.3,93,0.06,,,0.37,WUHU216HW,2013-04-08 15:38:00,
2013-04-08 10:43:00,38.5,36.6,29.23,North,0,12.1,13.0,93,0.06,,,0.38,WUHU216HW,2013-04-08 15:43:00,
2013-04-08 10:48:00,38.5,36.6,29.23,North,0,10.3,12.5,93,0.04,,,0.38,WUHU216HW,2013-04-08 15:48:00,
2013-04-08 10:53:00,38.5,36.6,29.22,North,0,15.4,15.4,93,0.03,,,0.38,WUHU216HW,2013-04-08 15:53:00,
2013-04-08 10:58:00,38.5,36.9,29.22,North,0,13.4,15.4,94,0.03,,,0.38,WUHU216HW,2013-04-08 15:58:00,
2013-04-08 11:03:00,38.5,36.9,29.22,North,0,15.0,15.7,94,0.03,,,0.39,WUHU216HW,2013-04-08 16:03:00,
2013-04-08 11:08:00,38.3,36.7,29.21,North,0,15.0,15.7,94,0.03,,,0.39,WUHU216HW,2013-04-08 16:08:00,
2013-04-08 11:13:00,38.3,36.7,29.21,North,0,13.0,19.0,94,0.02,,,0.39,WUHU216HW,2013-04-08 16:13:00,
2013-04-08 11:18:00,38.3,36.7,29.19,North,0,14.3,19.0,94,0.02,,,0.39,WUHU216HW,2013-04-08 16:18:00,
2013-04-08 11:23:00,38.5,36.9,29.19,North,0,19.2,21.3,94,0.02,,,0.39,WUHU216HW,2013-04-08 16:23:00,
2013-04-08 11:28:00,38.5,36.9,29.19,NNE,23,15.7,21.3,94,0.02,,,0.39,WUHU216HW,2013-04-08 16:28:00,
2013-04-08 11:33:00,38.7,37.1,29.19,North,0,21.3,21.3,94,0.02,,,0.39,WUHU216HW,2013-04-08 16:33:00,
2013-04-08 11:38:00,38.5,36.9,29.20,North,0,21.7,25.9,94,0.01,,,0.39,WUHU216HW,2013-04-08 16:38:00,
2013-04-08 11:43:00,38.5,36.9,29.23,NNE,23,13.6,25.9,94,0.01,,,0.39,WUHU216HW,2013-04-08 16:43:00,
2013-04-08 11:48:00,38.3,36.7,29.24,NNW,338,7.6,17.9,94,0.01,,,0.39,WUHU216HW,2013-04-08 16:48:00,
2013-04-08 11:53:00,38.3,36.7,29.24,North,0,7.4,13.9,94,0.01,,,0.39,WUHU216HW,2013-04-08 16:53:00,
2013-04-08 11:58:00,38.2,36.5,29.25,NNW,338,9.8,13.4,94,0.01,,,0.39,WUHU216HW,2013-04-08 16:58:00,
2013-04-08 12:03:00,38.3,36.7,29.25,NW,315,4.3,11.0,94,0.00,,,0.39,WUHU216HW,2013-04-08 17:03:00,
2013-04-08 12:08:00,38.3,36.7,29.25,NW,315,4.7,11.0,94,0.00,,,0.39,WUHU216HW,2013-04-08 17:08:00,
2013-04-08 12:13:00,38.5,36.9,29.24,NNW,338,8.9,10.3,94,0.00,,,0.39,WUHU216HW,2013-04-08 17:13:00,
2013-04-08 12:18:00,38.7,37.1,29.25,NW,315,6.0,10.3,94,0.00,,,0.39,WUHU216HW,2013-04-08 17:18:00,
2013-04-08 12:23:00,38.7,37.1,29.25,WNW,293,5.4,10.5,94,0.00,,,0.39,WUHU216HW,2013-04-08 17:23:00,
2013-04-08 12:28:00,38.9,37.3,29.25,NNW,338,11.0,15.0,94,0.00,,,0.39,WUHU216HW,2013-04-08 17:28:00,
2013-04-08 12:33:00,39.2,37.6,29.25,NE,45,7.2,15.0,94,0.00,,,0.39,WUHU216HW,2013-04-08 17:33:00,
2013-04-08 12:38:00,39.2,37.6,29.27,North,0,5.1,11.0,94,0.00,,,0.39,WUHU216HW,2013-04-08 17:38:00,
2013-04-08 12:44:00,39.2,37.6,29.28,North,0,5.4,7.2,94,0.00,,,0.39,WUHU216HW,2013-04-08 17:44:00,
2013-04-08 12:49:00,39.2,37.6,29.28,WNW,293,3.6,8.1,94,0.00,,,0.39,WUHU216HW,2013-04-08 17:49:00,
2013-04-08 12:54:00,39.2,37.4,29.29,NNW,338,2.7,8.1,93,0.00,,,0.39,WUHU216HW,2013-04-08 17:54:00,
2013-04-08 12:59:00,39.4,37.5,29.29,North,0,2.7,4.0,93,0.00,,,0.39,WUHU216HW,2013-04-08 17:59:00,
2013-04-08 13:04:00,39.8,37.9,29.29,NNW,338,4.9,5.1,93,0.00,,,0.39,WUHU216HW,2013-04-08 18:04:00,
2013-04-08 13:09:00,40.0,38.1,29.29,NNW,338,8.3,8.3,93,0.00,,,0.39,WUHU216HW,2013-04-08 18:09:00,
2013-04-08 13:14:00,40.0,38.1,29.29,NNW,338,4.0,8.3,93,0.00,,,0.39,WUHU216HW,2013-04-08 18:14:00,
2013-04-08 13:19:00,40.7,38.8,29.29,North,0,5.8,8.3,93,0.00,,,0.39,WUHU216HW,2013-04-08 18:19:00,
2013-04-08 13:24:00,40.9,39.0,29.30,North,0,8.9,9.2,93,0.00,,,0.39,WUHU216HW,2013-04-08 18:24:00,
2013-04-08 13:29:00,41.0,39.2,29.30,NNW,338,5.4,9.2,93,0.00,,,0.39,WUHU216HW,2013-04-08 18:29:00,
2013-04-08 13:34:00,41.2,39.3,29.30,North,0,9.2,9.2,93,0.00,,,0.39,WUHU216HW,2013-04-08 18:34:00,
2013-04-08 13:40:00,41.8,39.9,29.31,North,0,4.7,9.2,93,0.00,,,0.39,WUHU216HW,2013-04-08 18:40:00,
2013-04-08 13:45:00,42.1,40.2,29.32,North,0,10.5,10.5,93,0.00,,,0.39,WUHU216HW,2013-04-08 18:45:00,
2013-04-08 13:50:00,42.7,40.8,29.31,NNE,23,4.9,10.5,93,0.00,,,0.39,WUHU216HW,2013-04-08 18:50:00,
2013-04-08 13:55:00,42.8,41.0,29.31,North,0,7.8,10.7,93,0.00,,,0.39,WUHU216HW,2013-04-08 18:55:00,
2013-04-08 14:00:00,43.4,41.5,29.31,North,0,8.5,10.7,93,0.00,,,0.39,WUHU216HW,2013-04-08 19:00:00,
2013-04-08 14:05:00,43.9,41.8,29.31,North,0,10.3,11.0,92,0.00,,,0.39,WUHU216HW,2013-04-08 19:05:00,
2013-04-08 14:10:00,43.7,41.6,29.31,North,0,8.5,11.0,92,0.00,,,0.39,WUHU216HW,2013-04-08 19:10:00,
2013-04-08 14:15:00,44.1,41.9,29.31,North,0,8.5,10.3,92,0.00,,,0.39,WUHU216HW,2013-04-08 19:15:00,
2013-04-08 14:20:00,44.3,42.1,29.30,North,0,8.5,8.7,92,0.00,,,0.39,WUHU216HW,2013-04-08 19:20:00,
2013-04-08 14:25:00,44.6,42.2,29.30,NNE,23,6.3,9.2,91,0.00,,,0.39,WUHU216HW,2013-04-08 19:25:00,
2013-04-08 14:30:00,44.8,42.4,29.31,North,0,5.1,9.2,91,0.00,,,0.39,WUHU216HW,2013-04-08 19:30:00,
2013-04-08 14:35:00,44.8,42.4,29.31,North,0,7.6,9.2,91,0.00,,,0.39,WUHU216HW,2013-04-08 19:35:00,
2013-04-08 14:40:00,44.6,42.2,29.31,NNW,338,2.9,8.5,91,0.00,,,0.39,WUHU216HW,2013-04-08 19:40:00,
2013-04-08 14:45:00,44.8,42.4,29.31,North,0,4.7,7.6,91,0.00,,,0.39,WUHU216HW,2013-04-08 19:45:00,
2013-04-08 14:50:00,44.8,42.4,29.32,North,0,2.9,6.5,91,0.00,,,0.39,WUHU216HW,2013-04-08 19:50:00,
2013-04-08 14:55:00,44.6,42.2,29.32,NNW,338,3.4,4.7,91,0.00,,,0.39,WUHU216HW,2013-04-08 19:55:00,
2013-04-08 15:00:00,44.3,41.3,29.33,NNW,338,0.9,3.8,89,0.00,,,0.39,WUHU216HW,2013-04-08 20:00:00,
2013-04-08 15:05:00,44.1,41.1,29.32,North,0,4.3,4.3,89,0.00,,,0.39,WUHU216HW,2013-04-08 20:05:00,
2013-04-08 15:10:00,44.3,41.3,29.32,North,0,5.4,5.6,89,0.00,,,0.39,WUHU216HW,2013-04-08 20:10:00,
2013-04-08 15:15:00,44.3,41.3,29.32,NNW,338,2.5,5.6,89,0.00,,,0.39,WUHU216HW,2013-04-08 20:15:00,
2013-04-08 15:20:00,44.5,41.5,29.33,North,0,3.8,5.4,89,0.00,,,0.39,WUHU216HW,2013-04-08 20:20:00,
2013-04-08 15:26:00,44.6,41.9,29.33,North,0,1.6,4.0,90,0.00,,,0.39,WUHU216HW,2013-04-08 20:26:00,
2013-04-08 15:31:00,44.8,41.9,29.33,North,0,5.4,5.4,89,0.00,,,0.39,WUHU216HW,2013-04-08 20:31:00,
2013-04-08 15:36:00,44.8,41.9,29.32,NNE,23,0.7,5.4,89,0.00,,,0.39,WUHU216HW,2013-04-08 20:36:00,
2013-04-08 15:41:00,45.0,42.0,29.33,NNE,23,2.7,5.4,89,0.00,,,0.39,WUHU216HW,2013-04-08 20:41:00,
2013-04-08 15:46:00,45.2,41.9,29.33,NNW,338,2.5,4.7,88,0.00,,,0.39,WUHU216HW,2013-04-08 20:46:00,
2013-04-08 15:51:00,45.0,41.7,29.33,North,0,1.3,3.1,88,0.00,,,0.39,WUHU216HW,2013-04-08 20:51:00,
2013-04-08 15:56:00,45.4,42.0,29.34,NW,315,2.2,3.4,88,0.00,,,0.39,WUHU216HW,2013-04-08 20:56:00,
2013-04-08 16:02:00,45.7,42.4,29.34,North,0,1.3,4.0,88,0.00,,,0.39,WUHU216HW,2013-04-08 21:02:00,
2013-04-08 16:07:00,46.1,42.8,29.34,NNW,338,1.6,6.3,88,0.00,,,0.39,WUHU216HW,2013-04-08 21:07:00,
2013-04-08 16:12:00,45.7,42.1,29.34,NNW,338,2.9,6.3,87,0.00,,,0.39,WUHU216HW,2013-04-08 21:12:00,
2013-04-08 16:17:00,45.5,42.2,29.34,NNW,338,3.4,3.4,88,0.00,,,0.39,WUHU216HW,2013-04-08 21:17:00,
2013-04-08 16:22:00,45.5,42.2,29.34,North,0,5.4,5.4,88,0.00,,,0.39,WUHU216HW,2013-04-08 21:22:00,
2013-04-08 16:27:00,45.7,42.4,29.35,NW,315,2.0,6.9,88,0.00,,,0.39,WUHU216HW,2013-04-08 21:27:00,
2013-04-08 16:32:00,45.4,42.0,29.35,North,0,3.4,6.9,88,0.00,,,0.39,WUHU216HW,2013-04-08 21:32:00,
2013-04-08 16:37:00,45.2,41.6,29.35,NNW,338,1.8,5.8,87,0.00,,,0.39,WUHU216HW,2013-04-08 21:37:00,
2013-04-08 16:42:00,45.2,41.9,29.36,NW,315,1.6,3.4,88,0.00,,,0.39,WUHU216HW,2013-04-08 21:42:00,
2013-04-08 16:47:00,45.0,41.4,29.36,NW,315,1.1,2.0,87,0.00,,,0.39,WUHU216HW,2013-04-08 21:47:00,
2013-04-08 16:52:00,45.0,41.7,29.36,NNW,338,1.8,3.4,88,0.00,,,0.39,WUHU216HW,2013-04-08 21:52:00,
2013-04-08 16:57:00,45.4,42.0,29.36,NNE,23,2.9,5.4,88,0.00,,,0.39,WUHU216HW,2013-04-08 21:57:00,
2013-04-08 17:02:00,45.5,42.2,29.37,North,0,2.5,5.4,88,0.00,,,0.39,WUHU216HW,2013-04-08 22:02:00,
2013-04-08 17:07:00,45.7,42.4,29.37,North,0,1.6,5.4,88,0.00,,,0.39,WUHU216HW,2013-04-08 22:07:00,
2013-04-08 17:12:00,45.7,42.1,29.37,North,0,1.8,2.9,87,0.00,,,0.39,WUHU216HW,2013-04-08 22:12:00,
2013-04-08 17:17:00,45.7,41.8,29.38,NNW,338,1.3,2.9,86,0.00,,,0.39,WUHU216HW,2013-04-08 22:17:00,
2013-04-08 17:22:00,45.7,41.8,29.38,NNW,338,0.4,2.2,86,0.00,,,0.39,WUHU216HW,2013-04-08 22:22:00,
2013-04-08 17:27:00,45.9,42.3,29.38,NNE,23,1.6,2.0,87,0.00,,,0.39,WUHU216HW,2013-04-08 22:27:00,
2013-04-08 17:32:00,46.1,42.1,29.38,NNW,338,1.3,2.0,86,0.00,,,0.39,WUHU216HW,2013-04-08 22:32:00,
2013-04-08 17:37:00,45.9,41.9,29.39,North,0,0.4,1.6,86,0.00,,,0.39,WUHU216HW,2013-04-08 22:37:00,
2013-04-08 17:42:00,45.9,41.9,29.39,North,0,3.1,3.4,86,0.00,,,0.39,WUHU216HW,2013-04-08 22:42:00,
2013-04-08 17:47:00,45.7,41.8,29.39,North,0,4.3,5.1,86,0.00,,,0.39,WUHU216HW,2013-04-08 22:47:00,
2013-04-08 17:52:00,45.5,42.0,29.39,NNE,23,2.9,5.1,87,0.00,,,0.39,WUHU216HW,2013-04-08 22:52:00,
2013-04-08 17:57:00,45.4,41.8,29.40,North,0,6.9,6.9,87,0.00,,,0.39,WUHU216HW,2013-04-08 22:57:00,
2013-04-08 18:02:00,45.0,41.7,29.40,North,0,4.0,7.6,88,0.00,,,0.39,WUHU216HW,2013-04-08 23:02:00,
2013-04-08 18:07:00,44.5,41.1,29.40,North,0,6.9,7.6,88,0.00,,,0.39,WUHU216HW,2013-04-08 23:07:00,
2013-04-08 18:13:00,44.1,40.8,29.40,North,0,7.6,8.1,88,0.00,,,0.39,WUHU216HW,2013-04-08 23:13:00,
2013-04-08 18:18:00,43.9,40.6,29.41,North,0,4.7,8.5,88,0.00,,,0.39,WUHU216HW,2013-04-08 23:18:00,
2013-04-08 18:23:00,43.6,40.2,29.41,North,0,8.7,8.7,88,0.00,,,0.39,WUHU216HW,2013-04-08 23:23:00,
2013-04-08 18:28:00,43.4,40.4,29.41,North,0,8.3,8.7,89,0.00,,,0.39,WUHU216HW,2013-04-08 23:28:00,
2013-04-08 18:33:00,43.0,39.7,29.41,NNE,23,3.1,8.7,88,0.00,,,0.39,WUHU216HW,2013-04-08 23:33:00,
2013-04-08 18:38:00,42.8,39.5,29.41,North,0,4.0,8.3,88,0.00,,,0.39,WUHU216HW,2013-04-08 23:38:00,
2013-04-08 18:43:00,42.7,39.7,29.42,NNE,23,4.7,6.0,89,0.00,,,0.39,WUHU216HW,2013-04-08 23:43:00,
2013-04-08 18:48:00,42.7,39.7,29.42,NNE,23,4.7,6.0,89,0.00,,,0.39,WUHU216HW,2013-04-08 23:48:00,
2013-04-08 18:53:00,42.5,39.5,29.42,NNE,23,2.7,4.7,89,0.00,,,0.39,WUHU216HW,2013-04-08 23:53:00,
2013-04-08 18:58:00,42.1,39.2,29.42,NNE,23,4.5,4.7,89,0.00,,,0.39,WUHU216HW,2013-04-08 23:58:00,
2013-04-08 19:03:00,41.9,39.0,29.43,NNE,23,2.2,6.5,89,0.00,,,0.39,WUHU216HW,2013-04-09 00:03:00,
2013-04-08 19:08:00,41.9,39.0,29.43,North,0,1.6,6.5,89,0.00,,,0.39,WUHU216HW,2013-04-09 00:08:00,
2013-04-08 19:13:00,41.8,38.8,29.43,NNE,23,2.2,2.5,89,0.00,,,0.39,WUHU216HW,2013-04-09 00:13:00,
2013-04-08 19:18:00,41.8,38.8,29.43,NE,45,2.0,2.5,89,0.00,,,0.39,WUHU216HW,2013-04-09 00:18:00,
2013-04-08 19:23:00,41.8,38.8,29.44,NNE,23,2.9,2.9,89,0.00,,,0.39,WUHU216HW,2013-04-09 00:23:00,
2013-04-08 19:28:00,41.4,38.4,29.44,NE,45,0.4,2.9,89,0.00,,,0.39,WUHU216HW,2013-04-09 00:28:00,
2013-04-08 19:33:00,41.4,38.4,29.44,NE,45,4.7,4.7,89,0.00,,,0.39,WUHU216HW,2013-04-09 00:33:00,
2013-04-08 19:38:00,41.4,38.4,29.44,NNE,23,0.4,4.7,89,0.00,,,0.39,WUHU216HW,2013-04-09 00:38:00,
2013-04-08 19:43:00,41.2,38.3,29.45,NE,45,2.2,4.7,89,0.00,,,0.39,WUHU216HW,2013-04-09 00:43:00,
2013-04-08 19:48:00,41.2,38.3,29.45,North,0,4.0,4.5,89,0.00,,,0.39,WUHU216HW,2013-04-09 00:48:00,
2013-04-08 19:53:00,41.2,38.3,29.45,North,0,2.2,4.7,89,0.00,,,0.39,WUHU216HW,2013-04-09 00:53:00,
2013-04-08 19:58:00,41.0,38.1,29.45,North,0,4.7,4.7,89,0.00,,,0.39,WUHU216HW,2013-04-09 00:58:00,
2013-04-08 20:03:00,41.0,38.3,29.46,NE,45,1.3,4.7,90,0.00,,,0.39,WUHU216HW,2013-04-09 01:03:00,
2013-04-08 20:08:00,40.9,38.2,29.46,North,0,2.5,4.7,90,0.00,,,0.39,WUHU216HW,2013-04-09 01:08:00,
2013-04-08 20:13:00,40.9,38.2,29.46,NE,45,0.9,3.4,90,0.00,,,0.39,WUHU216HW,2013-04-09 01:13:00,
2013-04-08 20:18:00,40.7,38.0,29.46,North,0,3.4,3.4,90,0.00,,,0.39,WUHU216HW,2013-04-09 01:18:00,
2013-04-08 20:23:00,40.7,38.0,29.47,NNE,23,1.1,3.8,90,0.00,,,0.39,WUHU216HW,2013-04-09 01:23:00,
2013-04-08 20:28:00,40.7,38.0,29.47,NNE,23,2.2,3.8,90,0.00,,,0.39,WUHU216HW,2013-04-09 01:28:00,
2013-04-08 20:33:00,40.7,38.0,29.47,North,0,1.8,5.4,90,0.00,,,0.39,WUHU216HW,2013-04-09 01:33:00,
2013-04-08 20:38:00,40.5,37.8,29.47,NNE,23,1.8,5.4,90,0.00,,,0.39,WUHU216HW,2013-04-09 01:38:00,
2013-04-08 20:43:00,40.3,37.6,29.48,North,0,4.0,4.9,90,0.00,,,0.39,WUHU216HW,2013-04-09 01:43:00,
2013-04-08 20:48:00,40.3,37.6,29.48,North,0,4.7,5.1,90,0.00,,,0.39,WUHU216HW,2013-04-09 01:48:00,
2013-04-08 20:53:00,40.3,37.6,29.49,ENE,68,0.4,5.1,90,0.00,,,0.39,WUHU216HW,2013-04-09 01:53:00,
2013-04-08 20:58:00,40.3,37.6,29.49,NE,45,2.9,4.7,90,0.00,,,0.39,WUHU216HW,2013-04-09 01:58:00,
2013-04-08 21:03:00,40.1,37.4,29.50,ESE,113,0.7,4.0,90,0.00,,,0.39,WUHU216HW,2013-04-09 02:03:00,
2013-04-08 21:08:00,40.1,37.4,29.50,NNE,23,1.8,3.4,90,0.00,,,0.39,WUHU216HW,2013-04-09 02:08:00,
2013-04-08 21:13:00,40.0,37.3,29.50,NNE,23,4.7,5.1,90,0.00,,,0.39,WUHU216HW,2013-04-09 02:13:00,
2013-04-08 21:18:00,39.8,37.1,29.50,NE,45,3.4,5.1,90,0.00,,,0.39,WUHU216HW,2013-04-09 02:18:00,
2013-04-08 21:23:00,39.6,36.9,29.50,ESE,113,3.4,4.7,90,0.00,,,0.39,WUHU216HW,2013-04-09 02:23:00,
2013-04-08 21:28:00,39.4,36.7,29.50,NE,45,3.8,5.4,90,0.00,,,0.39,WUHU216HW,2013-04-09 02:28:00,
2013-04-08 21:33:00,39.2,36.5,29.50,NNE,23,3.6,5.4,90,0.00,,,0.39,WUHU216HW,2013-04-09 02:33:00,
2013-04-08 21:38:00,39.1,36.4,29.51,North,0,4.7,6.0,90,0.00,,,0.39,WUHU216HW,2013-04-09 02:38:00,
2013-04-08 21:43:00,38.9,36.2,29.51,North,0,3.4,6.0,90,0.00,,,0.39,WUHU216HW,2013-04-09 02:43:00,
2013-04-08 21:48:00,38.9,36.2,29.51,North,0,6.9,6.9,90,0.00,,,0.39,WUHU216HW,2013-04-09 02:48:00,
2013-04-08 21:53:00,38.7,36.0,29.51,North,0,5.8,6.9,90,0.00,,,0.39,WUHU216HW,2013-04-09 02:53:00,
2013-04-08 21:58:00,38.7,36.0,29.51,North,0,5.4,6.9,90,0.00,,,0.39,WUHU216HW,2013-04-09 02:58:00,
2013-04-08 22:03:00,38.5,35.8,29.51,NNE,23,3.1,5.8,90,0.00,,,0.39,WUHU216HW,2013-04-09 03:03:00,
2013-04-08 22:08:00,38.5,36.1,29.51,NE,45,1.8,5.4,91,0.00,,,0.39,WUHU216HW,2013-04-09 03:08:00,
2013-04-08 22:13:00,38.5,36.1,29.52,NE,45,4.7,4.7,91,0.00,,,0.39,WUHU216HW,2013-04-09 03:13:00,
2013-04-08 22:18:00,38.3,35.6,29.52,North,0,2.9,4.7,90,0.00,,,0.39,WUHU216HW,2013-04-09 03:18:00,
2013-04-08 22:23:00,38.2,35.7,29.52,North,0,5.8,6.3,91,0.00,,,0.39,WUHU216HW,2013-04-09 03:23:00,
2013-04-08 22:28:00,38.2,35.5,29.52,North,0,6.9,6.9,90,0.00,,,0.39,WUHU216HW,2013-04-09 03:28:00,
2013-04-08 22:33:00,38.0,35.3,29.52,NNE,23,7.2,7.2,90,0.00,,,0.39,WUHU216HW,2013-04-09 03:33:00,
2013-04-08 22:38:00,38.0,35.3,29.52,North,0,5.8,7.2,90,0.00,,,0.39,WUHU216HW,2013-04-09 03:38:00,
2013-04-08 22:43:00,38.0,35.3,29.52,NNE,23,3.6,6.9,90,0.00,,,0.39,WUHU216HW,2013-04-09 03:43:00,
2013-04-08 22:48:00,37.8,35.1,29.53,North,0,4.0,6.0,90,0.00,,,0.39,WUHU216HW,2013-04-09 03:48:00,
2013-04-08 22:53:00,37.8,35.1,29.53,North,0,4.7,6.0,90,0.00,,,0.39,WUHU216HW,2013-04-09 03:53:00,
2013-04-08 22:58:00,37.8,35.1,29.54,NNE,23,5.1,5.1,90,0.00,,,0.39,WUHU216HW,2013-04-09 03:58:00,
2013-04-08 23:00:00,37.8,35.1,29.53,North,0,1.8,5.1,90,0.00,,,0.39,WUHU216HW,2013-04-09 04:00:00,
2013-04-08 23:05:00,37.8,35.1,29.54,North,0,2.2,5.1,90,0.00,,,0.39,WUHU216HW,2013-04-09 04:05:00,
2013-04-08 23:10:00,37.8,35.1,29.54,NNE,23,5.1,5.1,90,0.00,,,0.39,WUHU216HW,2013-04-09 04:10:00,
2013-04-08 23:15:00,37.8,35.1,29.53,North,0,4.7,5.4,90,0.00,,,0.39,WUHU216HW,2013-04-09 04:15:00,
2013-04-08 23:20:00,37.8,35.4,29.53,North,0,4.0,5.6,91,0.00,,,0.39,WUHU216HW,2013-04-09 04:20:00,
2013-04-08 23:25:00,37.8,35.4,29.53,North,0,2.7,5.6,91,0.00,,,0.39,WUHU216HW,2013-04-09 04:25:00,
2013-04-08 23:30:00,37.6,35.2,29.54,North,0,4.3,4.7,91,0.00,,,0.39,WUHU216HW,2013-04-09 04:30:00,
2013-04-08 23:35:00,37.6,35.2,29.53,North,0,4.3,5.8,91,0.00,,,0.39,WUHU216HW,2013-04-09 04:35:00,
2013-04-08 23:40:00,37.6,35.5,29.53,North,0,5.8,5.8,92,0.00,,,0.39,WUHU216HW,2013-04-09 04:40:00,
2013-04-08 23:45:00,37.4,35.3,29.53,North,0,5.4,6.9,92,0.00,,,0.39,WUHU216HW,2013-04-09 04:45:00,
2013-04-08 23:50:00,37.4,35.3,29.53,North,0,7.8,9.8,92,0.00,,,0.39,WUHU216HW,2013-04-09 04:50:00,
2013-04-08 23:55:00,37.4,35.3,29.53,North,0,3.1,9.8,92,0.00,,,0.39,WUHU216HW,2013-04-09 04:55:00,